createdAt,value
2022-09-03T00:00:53.232Z,1.20
2022-09-03T00:03:59.152Z,1.00
2022-09-03T00:07:02.929Z,1.10
2022-09-03T00:10:05.166Z,1.00
2022-09-03T00:13:03.449Z,1.10
2022-09-03T00:16:04.026Z,1.10
2022-09-03T00:19:00.891Z,1.00
2022-09-03T00:21:59.892Z,0.90
2022-09-03T00:24:54.802Z,0.90
2022-09-03T00:27:56.859Z,1.00
2022-09-03T00:30:56.875Z,1.00
2022-09-03T00:33:58.376Z,0.90
2022-09-03T00:36:52.000Z,0.90
2022-09-03T00:39:49.926Z,1.00
2022-09-03T00:45:48.697Z,1.00
2022-09-03T00:48:59.573Z,1.00
2022-09-03T00:52:01.110Z,1.10
2022-09-03T00:55:04.800Z,0.90
2022-09-03T00:58:13.176Z,0.80
2022-09-03T01:01:12.107Z,1.00
2022-09-03T01:04:21.861Z,1.10
2022-09-03T01:07:41.094Z,0.90
2022-09-03T01:11:03.029Z,1.10
2022-09-03T01:14:12.318Z,0.90
2022-09-03T01:17:18.713Z,1.10
2022-09-03T01:20:34.490Z,0.90
2022-09-03T01:24:02.139Z,0.80
2022-09-03T01:27:17.254Z,1.00
2022-09-03T01:30:18.486Z,0.80
2022-09-03T01:33:16.611Z,1.10
2022-09-03T01:36:16.767Z,1.00
2022-09-03T01:39:13.779Z,0.90
2022-09-03T01:42:20.922Z,1.10
2022-09-03T01:45:33.140Z,0.80
2022-09-03T01:48:43.264Z,1.10
2022-09-03T01:51:35.368Z,1.00
2022-09-03T01:54:42.691Z,1.00
2022-09-03T01:57:48.824Z,1.00
2022-09-03T02:00:43.669Z,0.90
2022-09-03T02:03:41.545Z,1.10
2022-09-03T02:06:34.928Z,1.00
2022-09-03T02:09:32.838Z,0.90
2022-09-03T02:12:29.736Z,0.90
2022-09-03T02:15:26.627Z,0.90
2022-09-03T02:18:24.590Z,0.90
2022-09-03T02:21:21.460Z,0.90
2022-09-03T02:24:16.445Z,1.00
2022-09-03T02:27:13.068Z,1.10
2022-09-03T02:30:12.544Z,0.90
2022-09-03T02:33:06.734Z,1.10
2022-09-03T02:36:01.863Z,0.80
2022-09-03T02:38:56.765Z,0.90
2022-09-03T02:41:56.786Z,0.80
2022-09-03T02:44:57.092Z,0.90
2022-09-03T02:47:52.608Z,1.00
2022-09-03T02:50:45.798Z,0.90
2022-09-03T02:53:39.656Z,0.90
2022-09-03T02:56:34.952Z,0.80
2022-09-03T02:59:29.170Z,1.00
2022-09-03T03:02:24.255Z,0.70
2022-09-03T03:05:26.560Z,0.90
2022-09-03T03:08:25.835Z,0.80
2022-09-03T03:11:20.011Z,1.00
2022-09-03T03:14:13.117Z,1.00
2022-09-03T03:17:07.897Z,0.90
2022-09-03T03:20:03.791Z,1.00
2022-09-03T03:22:58.624Z,1.00
2022-09-03T03:25:53.906Z,1.10
2022-09-03T03:28:49.257Z,1.10
2022-09-03T03:31:44.430Z,0.90
2022-09-03T03:34:40.121Z,1.20
2022-09-03T03:37:33.413Z,1.00
2022-09-03T03:40:28.125Z,0.90
2022-09-03T03:43:21.165Z,1.10
2022-09-03T03:46:15.260Z,0.80
2022-09-03T03:49:11.569Z,0.90
2022-09-03T03:52:09.324Z,1.00
2022-09-03T03:58:00.870Z,1.00
2022-09-03T04:00:56.260Z,0.80
2022-09-03T04:03:50.783Z,1.00
2022-09-03T04:06:45.167Z,0.80
2022-09-03T04:09:43.050Z,0.90
2022-09-03T04:12:36.935Z,0.90
2022-09-03T04:15:30.890Z,1.10
2022-09-03T04:18:27.040Z,0.90
2022-09-03T04:21:22.995Z,0.90
2022-09-03T04:24:15.906Z,0.70
2022-09-03T04:27:11.833Z,0.70
2022-09-03T04:30:09.611Z,0.90
2022-09-03T04:33:05.376Z,0.80
2022-09-03T04:39:08.759Z,1.00
2022-09-03T04:42:04.965Z,1.20
2022-09-03T04:45:01.821Z,1.00
2022-09-03T04:48:03.478Z,1.20
2022-09-03T04:51:08.529Z,1.40
2022-09-03T04:54:07.112Z,1.20
2022-09-03T04:57:09.143Z,1.30
2022-09-03T05:00:18.221Z,1.40
2022-09-03T05:03:14.215Z,1.40
2022-09-03T05:06:08.847Z,1.60
2022-09-03T05:09:07.301Z,1.40
2022-09-03T05:12:14.814Z,1.50
2022-09-03T05:15:15.069Z,1.40
2022-09-03T05:18:16.801Z,1.30
2022-09-03T05:21:17.220Z,1.30
2022-09-03T05:24:15.606Z,1.30
2022-09-03T05:27:17.699Z,1.40
2022-09-03T05:30:16.598Z,1.30
2022-09-03T05:33:12.180Z,1.40
2022-09-03T05:36:10.029Z,1.30
2022-09-03T05:39:08.762Z,1.10
2022-09-03T05:42:06.519Z,0.90
2022-09-03T05:45:05.620Z,0.90
2022-09-03T05:48:08.612Z,1.10
2022-09-03T05:51:09.681Z,0.80
2022-09-03T05:54:06.236Z,0.90
2022-09-03T05:57:06.937Z,0.70
2022-09-03T06:00:17.267Z,0.90
2022-09-03T06:03:18.455Z,0.80
2022-09-03T06:06:31.249Z,0.90
2022-09-03T06:09:33.962Z,0.90
2022-09-03T06:12:37.593Z,0.90
2022-09-03T06:15:44.231Z,0.90
2022-09-03T06:18:47.212Z,1.00
2022-09-03T06:21:53.082Z,1.00
2022-09-03T06:24:54.359Z,0.90
2022-09-03T06:27:56.626Z,1.10
2022-09-03T06:30:53.040Z,0.90
2022-09-03T06:34:03.865Z,0.80
2022-09-03T06:37:04.289Z,0.80
2022-09-03T06:40:06.307Z,0.70
2022-09-03T06:43:08.094Z,0.90
2022-09-03T06:46:08.350Z,0.80
2022-09-03T06:49:16.758Z,0.80
2022-09-03T06:52:20.216Z,0.80
2022-09-03T06:55:21.353Z,0.80
2022-09-03T06:58:20.965Z,0.80
2022-09-03T07:01:21.843Z,0.80
2022-09-03T07:04:28.089Z,0.90
2022-09-03T07:07:26.674Z,1.00
2022-09-03T07:10:33.248Z,0.90
2022-09-03T07:13:30.225Z,0.80
2022-09-03T07:16:26.074Z,0.90
2022-09-03T07:19:20.095Z,0.90
2022-09-03T07:22:31.537Z,0.90
2022-09-03T07:25:35.302Z,0.80
2022-09-03T07:28:43.369Z,1.00
2022-09-03T07:31:52.205Z,0.90
2022-09-03T07:34:55.885Z,0.80
2022-09-03T07:37:57.190Z,1.00
2022-09-03T07:41:02.750Z,0.80
2022-09-03T07:44:13.402Z,0.60
2022-09-03T07:47:25.168Z,0.70
2022-09-03T07:50:26.240Z,0.70
2022-09-03T07:56:26.001Z,0.80
2022-09-03T07:59:28.077Z,0.70
2022-09-03T08:02:25.444Z,1.10
2022-09-03T08:05:23.002Z,0.90
2022-09-03T08:08:22.433Z,0.90
2022-09-03T08:11:29.157Z,1.00
2022-09-03T08:14:33.098Z,0.90
2022-09-03T08:17:40.471Z,0.90
2022-09-03T08:20:38.158Z,1.00
2022-09-03T08:23:53.406Z,1.00
2022-09-03T08:26:51.986Z,1.10
2022-09-03T08:29:52.402Z,1.00
2022-09-03T08:32:55.140Z,1.60
2022-09-03T08:35:58.943Z,1.80
2022-09-03T08:39:03.587Z,1.70
2022-09-03T08:42:29.315Z,1.30
2022-09-03T08:45:38.289Z,1.90
2022-09-03T08:48:39.886Z,1.50
2022-09-03T08:51:46.864Z,1.50
2022-09-03T08:54:47.675Z,1.30
2022-09-03T08:57:59.598Z,1.30
2022-09-03T09:01:09.708Z,2.10
2022-09-03T09:04:20.236Z,1.70
2022-09-03T09:07:39.357Z,1.40
2022-09-03T09:10:49.937Z,1.30
2022-09-03T09:13:49.878Z,1.90
2022-09-03T09:16:56.752Z,1.70
2022-09-03T09:20:26.332Z,1.20
2022-09-03T09:23:38.260Z,0.90
2022-09-03T09:26:55.372Z,0.90
2022-09-03T09:29:56.761Z,0.90
2022-09-03T09:32:58.293Z,0.80
2022-09-03T09:35:58.331Z,1.10
2022-09-03T09:39:17.086Z,1.10
2022-09-03T09:45:25.921Z,1.10
2022-09-03T09:48:27.484Z,1.30
2022-09-03T09:51:33.331Z,1.10
2022-09-03T09:54:34.356Z,0.90
2022-09-03T09:57:32.763Z,0.90
2022-09-03T10:00:39.160Z,0.90
2022-09-03T10:04:00.044Z,1.20
2022-09-03T10:06:59.134Z,1.10
2022-09-03T10:10:13.359Z,1.10
2022-09-03T10:13:21.768Z,1.10
2022-09-03T10:16:36.189Z,1.00
2022-09-03T10:20:08.040Z,1.00
2022-09-03T10:23:10.058Z,1.00
2022-09-03T10:26:14.134Z,1.10
2022-09-03T10:29:16.403Z,0.90
2022-09-03T10:32:39.929Z,0.90
2022-09-03T10:35:43.059Z,1.10
2022-09-03T10:38:44.473Z,1.20
2022-09-03T10:41:59.953Z,0.90
2022-09-03T10:45:04.879Z,0.90
2022-09-03T10:48:20.349Z,1.00
2022-09-03T10:51:22.017Z,0.80
2022-09-03T10:54:29.223Z,1.00
2022-09-03T10:57:39.442Z,1.10
2022-09-03T11:00:40.365Z,1.10
2022-09-03T11:03:54.419Z,1.00
2022-09-03T11:06:57.257Z,1.10
2022-09-03T11:10:00.748Z,1.20
2022-09-03T11:13:13.406Z,1.40
2022-09-03T11:16:20.709Z,1.00
2022-09-03T11:19:23.619Z,1.00
2022-09-03T11:22:28.537Z,1.20
2022-09-03T11:25:45.420Z,0.90
2022-09-03T11:29:02.437Z,1.80
2022-09-03T11:32:08.468Z,2.00
2022-09-03T11:35:21.262Z,2.20
2022-09-03T11:38:29.676Z,2.60
2022-09-03T11:41:44.466Z,2.50
2022-09-03T11:44:55.026Z,2.60
2022-09-03T11:47:51.664Z,2.70
2022-09-03T11:51:03.349Z,2.40
2022-09-03T11:54:09.646Z,2.30
2022-09-03T11:57:17.251Z,1.40
2022-09-03T12:00:27.265Z,1.50
2022-09-03T12:03:34.430Z,1.20
2022-09-03T12:06:50.509Z,1.20
2022-09-03T12:10:33.890Z,1.30
2022-09-03T12:13:53.416Z,1.20
2022-09-03T12:17:28.299Z,1.00
2022-09-03T12:20:41.447Z,1.20
2022-09-03T12:24:00.423Z,1.10
2022-09-03T12:26:59.305Z,1.30
2022-09-03T12:30:03.514Z,1.10
2022-09-03T12:33:08.376Z,1.10
2022-09-03T12:36:14.208Z,1.10
2022-09-03T12:43:37.297Z,1.00
2022-09-03T12:46:26.666Z,1.20
2022-09-03T12:49:44.429Z,1.00
2022-09-03T12:52:43.681Z,1.00
2022-09-03T12:55:53.296Z,1.00
2022-09-03T12:58:59.287Z,1.00
2022-09-03T13:02:00.771Z,1.10
2022-09-03T13:05:10.488Z,1.00
2022-09-03T13:08:35.449Z,1.10
2022-09-03T13:11:48.433Z,1.40
2022-09-03T13:15:00.510Z,1.40
2022-09-03T13:18:22.259Z,1.60
2022-09-03T13:21:42.086Z,1.60
2022-09-03T13:25:02.054Z,1.60
2022-09-03T13:28:10.441Z,1.80
2022-09-03T13:31:19.475Z,1.70
2022-09-03T13:34:28.196Z,1.60
2022-09-03T13:37:45.486Z,1.50
2022-09-03T13:40:44.495Z,1.60
2022-09-03T13:43:48.476Z,1.60
2022-09-03T13:46:55.965Z,1.50
2022-09-03T13:50:14.286Z,1.40
2022-09-03T13:53:22.802Z,1.70
2022-09-03T13:56:28.164Z,1.40
2022-09-03T13:59:37.499Z,1.70
2022-09-03T14:03:01.186Z,1.40
2022-09-03T14:06:11.339Z,1.40
2022-09-03T14:09:27.537Z,1.30
2022-09-03T14:12:38.529Z,1.50
2022-09-03T14:15:47.487Z,1.20
2022-09-03T14:18:59.524Z,1.40
2022-09-03T14:21:57.184Z,1.70
2022-09-03T14:24:56.009Z,1.20
2022-09-03T14:27:55.502Z,1.30
2022-09-03T14:31:10.549Z,1.40
2022-09-03T14:34:15.277Z,1.40
2022-09-03T14:37:20.251Z,1.30
2022-09-03T14:40:30.529Z,1.10
2022-09-03T14:44:17.247Z,1.20
2022-09-03T14:47:40.010Z,1.00
2022-09-03T14:51:00.592Z,1.00
2022-09-03T14:54:50.273Z,1.00
2022-09-03T14:58:11.100Z,1.00
2022-09-03T15:01:16.507Z,1.10
2022-09-03T15:04:56.189Z,1.10
2022-09-03T15:07:56.676Z,1.00
2022-09-03T15:11:07.089Z,1.20
2022-09-03T15:14:07.791Z,1.20
2022-09-03T15:17:19.509Z,0.90
2022-09-03T15:20:32.446Z,1.00
2022-09-03T15:23:54.865Z,1.00
2022-09-03T15:27:03.432Z,0.80
2022-09-03T15:30:09.855Z,1.10
2022-09-03T15:33:15.148Z,0.80
2022-09-03T15:36:18.233Z,1.30
2022-09-03T15:39:18.137Z,1.10
2022-09-03T15:42:25.958Z,1.20
2022-09-03T15:45:40.107Z,1.00
2022-09-03T15:48:54.552Z,1.00
2022-09-03T15:52:09.609Z,1.10
2022-09-03T15:55:13.097Z,1.20
2022-09-03T15:58:33.722Z,1.00
2022-09-03T16:01:53.441Z,1.00
2022-09-03T16:05:20.579Z,1.20
2022-09-03T16:08:31.581Z,1.00
2022-09-03T16:11:46.618Z,1.10
2022-09-03T16:14:47.401Z,1.30
2022-09-03T16:17:59.432Z,1.20
2022-09-03T16:21:08.617Z,1.00
2022-09-03T16:24:24.176Z,1.00
2022-09-03T16:27:44.432Z,1.30
2022-09-03T16:30:58.620Z,1.10
2022-09-03T16:34:07.707Z,1.10
2022-09-03T16:37:12.385Z,1.00
2022-09-03T16:40:26.044Z,1.00
2022-09-03T16:43:43.499Z,1.30
2022-09-03T16:47:08.597Z,1.30
2022-09-03T16:50:23.173Z,1.30
2022-09-03T16:53:31.882Z,1.30
2022-09-03T16:56:56.645Z,1.20
2022-09-03T17:00:09.025Z,1.20
2022-09-03T17:03:36.638Z,1.50
2022-09-03T17:07:00.630Z,1.40
2022-09-03T17:10:12.616Z,1.60
2022-09-03T17:13:28.138Z,1.90
2022-09-03T17:16:53.675Z,1.60
2022-09-03T17:20:00.635Z,2.30
2022-09-03T17:23:06.238Z,2.20
2022-09-03T17:26:20.413Z,2.00
2022-09-03T17:29:31.515Z,1.80
2022-09-03T17:33:40.662Z,1.90
2022-09-03T17:36:47.627Z,2.00
2022-09-03T17:40:00.698Z,1.60
2022-09-03T17:43:14.292Z,1.70
2022-09-03T17:46:32.903Z,1.70
2022-09-03T17:49:34.302Z,2.10
2022-09-03T17:52:40.461Z,2.10
2022-09-03T17:55:45.499Z,2.40
2022-09-03T17:59:00.655Z,2.30
2022-09-03T18:02:22.243Z,2.40
2022-09-03T18:05:31.710Z,2.40
2022-09-03T18:08:52.464Z,2.20
2022-09-03T18:12:02.640Z,2.20
2022-09-03T18:15:12.563Z,2.00
2022-09-03T18:18:19.455Z,2.10
2022-09-03T18:21:50.283Z,2.10
2022-09-03T18:25:20.681Z,2.00
2022-09-03T18:28:38.071Z,2.10
2022-09-03T18:31:57.448Z,2.50
2022-09-03T18:35:14.637Z,2.10
2022-09-03T18:38:32.318Z,2.40
2022-09-03T18:42:16.446Z,2.80
2022-09-03T18:46:28.114Z,2.60
2022-09-03T18:49:33.664Z,2.40
2022-09-03T18:53:04.672Z,2.60
2022-09-03T18:56:37.032Z,3.20
2022-09-03T19:00:12.464Z,3.00
2022-09-03T19:04:04.529Z,2.70
2022-09-03T19:07:35.469Z,2.40
2022-09-03T19:10:57.254Z,2.40
2022-09-03T19:14:12.697Z,2.40
2022-09-03T19:17:45.368Z,2.20
2022-09-03T19:21:05.956Z,2.70
2022-09-03T19:24:37.408Z,2.50
2022-09-03T19:28:19.198Z,2.20
2022-09-03T19:35:32.258Z,2.10
2022-09-03T19:39:20.901Z,2.10
2022-09-03T19:42:42.259Z,1.80
2022-09-03T19:46:17.596Z,2.40
2022-09-03T19:49:51.796Z,1.90
2022-09-03T19:53:24.975Z,2.30
2022-09-03T19:56:43.691Z,2.10
2022-09-03T20:00:09.599Z,2.00
2022-09-03T20:03:46.593Z,1.90
2022-09-03T20:07:00.457Z,1.80
2022-09-03T20:10:25.757Z,2.20
2022-09-03T20:13:29.739Z,1.80
2022-09-03T20:16:35.395Z,2.00
2022-09-03T20:19:56.969Z,2.00
2022-09-03T20:23:21.773Z,2.10
2022-09-03T20:26:44.709Z,2.00
2022-09-03T20:30:04.764Z,2.30
2022-09-03T20:33:29.596Z,1.80
2022-09-03T20:36:41.443Z,2.10
2022-09-03T20:39:49.731Z,2.20
2022-09-03T20:43:12.365Z,2.00
2022-09-03T20:46:30.494Z,2.10
2022-09-03T20:49:41.185Z,2.00
2022-09-03T20:52:48.492Z,2.10
2022-09-03T20:55:51.063Z,2.20
2022-09-03T20:59:07.838Z,1.60
2022-09-03T21:02:12.776Z,1.70
2022-09-03T21:05:29.763Z,1.60
2022-09-03T21:09:07.732Z,1.70
2022-09-03T21:12:16.743Z,1.80
2022-09-03T21:15:30.028Z,1.70
2022-09-03T21:18:37.732Z,1.70
2022-09-03T21:25:03.590Z,1.40
2022-09-03T21:28:00.913Z,1.50
2022-09-03T21:31:03.786Z,1.60
2022-09-03T21:34:38.773Z,1.50
2022-09-03T21:38:02.526Z,1.90
2022-09-03T21:41:19.822Z,1.50
2022-09-03T21:44:21.824Z,1.70
2022-09-03T21:47:17.464Z,1.60
2022-09-03T21:53:28.256Z,1.50
2022-09-03T21:56:47.037Z,1.40
2022-09-03T22:00:20.009Z,1.60
2022-09-03T22:03:15.489Z,1.60
2022-09-03T22:06:21.483Z,1.60
2022-09-03T22:09:32.621Z,1.90
2022-09-03T22:12:34.094Z,1.60
2022-09-03T22:15:28.841Z,1.60
2022-09-03T22:21:39.157Z,1.40
2022-09-03T22:24:41.369Z,1.40
2022-09-03T22:27:54.397Z,1.60
2022-09-03T22:31:04.871Z,1.60
2022-09-03T22:34:05.408Z,1.40
2022-09-03T22:37:02.029Z,1.60
2022-09-03T22:40:03.091Z,1.70
2022-09-03T22:43:21.030Z,1.50
2022-09-03T22:46:22.069Z,1.30
2022-09-03T22:49:27.597Z,1.70
2022-09-03T22:52:31.880Z,1.30
2022-09-03T22:55:29.149Z,1.30
2022-09-03T22:58:26.805Z,1.30
2022-09-03T23:01:28.892Z,1.10
2022-09-03T23:04:31.129Z,1.50
2022-09-03T23:07:36.988Z,1.30
2022-09-03T23:10:42.485Z,1.40
2022-09-03T23:13:43.775Z,1.50
2022-09-03T23:16:47.781Z,1.40
2022-09-03T23:19:44.291Z,1.50
2022-09-03T23:22:45.507Z,1.20
2022-09-03T23:25:49.601Z,1.20
2022-09-03T23:28:47.486Z,1.40
2022-09-03T23:31:42.834Z,1.20
2022-09-03T23:37:48.550Z,1.10
2022-09-03T23:40:47.956Z,1.40
2022-09-03T23:44:06.687Z,1.20
2022-09-03T23:47:12.735Z,1.10
2022-09-03T23:50:18.205Z,1.30
2022-09-03T23:53:28.405Z,1.20
2022-09-03T23:57:05.534Z,1.40
